Time;durP1;ratioP1;P1;durP2;ratioP2;P2;SDS_P1;SDS_P2;PMS_P1;PMS_P2;Temp;Humidity;BMP_temperature;BMP_pressure;BME280_temperature;BME280_humidity;BME280_pressure;Samples;Min_cycle;Max_cycle;Signal;HPM_P1;HPM_P2
2023/04/01 00:01:13;;;;;;;;;;;10.70;99.90;;;;;;5021339;28;19959;-90
2023/04/01 00:03:39;;;;;;;;;;;10.70;99.90;;;;;;5039023;28;19909;-90
2023/04/01 00:06:05;;;;;;;;;;;10.70;99.90;;;;;;5022643;28;19967;-91
2023/04/01 00:08:30;;;;;;;;;;;10.70;99.90;;;;;;5031660;28;19898;-90
2023/04/01 00:10:56;;;;;;;;;;;10.70;99.90;;;;;;5020352;28;20328;-90
2023/04/01 00:13:23;;;;;;;;;;;10.70;99.90;;;;;;5023046;28;19920;-85
2023/04/01 00:15:48;;;;;;;;;;;10.70;99.90;;;;;;5025831;28;19913;-85
2023/04/01 00:18:14;;;;;;;;;;;10.70;99.90;;;;;;5024885;28;19914;-84
2023/04/01 00:20:43;;;;;;;;;;;10.70;99.90;;;;;;5025924;28;19925;-85
2023/04/01 00:23:09;;;;;;;;;;;10.70;99.90;;;;;;5041107;28;19909;-85
2023/04/01 00:25:35;;;;;;;;;;;10.70;99.90;;;;;;5028507;28;19916;-89
2023/04/01 00:28:00;;;;;;;;;;;10.80;99.90;;;;;;5031521;28;19960;-90
2023/04/01 00:30:26;;;;;;;;;;;10.70;99.90;;;;;;5020202;28;19914;-85
2023/04/01 00:32:52;;;;;;;;;;;10.70;99.90;;;;;;5018909;28;19909;-86
2023/04/01 00:35:18;;;;;;;;;;;10.70;99.90;;;;;;5019785;28;19932;-87
2023/04/01 00:37:43;;;;;;;;;;;10.70;99.90;;;;;;5021403;28;19917;-88
2023/04/01 00:40:20;;;;;;;;;;;10.70;99.90;;;;;;5020842;28;20015;-88
2023/04/01 00:42:46;;;;;;;;;;;10.80;99.90;;;;;;5018755;28;19910;-86
2023/04/01 00:45:41;;;;;;;;;;;10.80;99.90;;;;;;5019457;28;19909;-87
2023/04/01 00:48:26;;;;;;;;;;;10.80;99.90;;;;;;5006202;28;19920;-88
2023/04/01 00:50:55;;;;;;;;;;;10.80;99.90;;;;;;5018659;28;20355;-87
2023/04/01 00:53:21;;;;;;;;;;;10.80;99.90;;;;;;5018730;28;19917;-87
2023/04/01 00:55:53;;;;;;;;;;;10.80;99.90;;;;;;5018949;28;19913;-87
2023/04/01 00:58:21;;;;;;;;;;;10.80;99.90;;;;;;5018845;28;19920;-88
2023/04/01 01:00:47;;;;;;;;;;;10.80;99.90;;;;;;5036466;28;20384;-88
2023/04/01 01:03:12;;;;;;;;;;;10.80;99.90;;;;;;5018710;28;19916;-85
2023/04/01 01:05:45;;;;;;;;;;;10.80;99.90;;;;;;5018349;28;19914;-86
2023/04/01 01:08:11;;;;;;;;;;;10.80;99.90;;;;;;5018128;28;19913;-86
2023/04/01 01:10:38;;;;;;;;;;;10.80;99.90;;;;;;5019021;28;20000;-86
2023/04/01 01:13:07;;;;;;;;;;;10.80;99.90;;;;;;5018194;28;19909;-85
2023/04/01 01:15:35;;;;;;;;;;;10.80;99.90;;;;;;5018171;28;20003;-85
2023/04/01 01:18:01;;;;;;;;;;;10.80;99.90;;;;;;5018067;28;19913;-85
2023/04/01 01:20:35;;;;;;;;;;;10.80;99.90;;;;;;5018056;28;20024;-86
2023/04/01 01:23:11;;;;;;;;;;;10.80;99.90;;;;;;5018281;28;19916;-87
2023/04/01 01:25:55;;;;;;;;;;;10.90;99.90;;;;;;5018440;28;19909;-87
2023/04/01 01:28:39;;;;;;;;;;;10.90;99.90;;;;;;5019133;28;19917;-88
2023/04/01 01:31:05;;;;;;;;;;;10.90;99.90;;;;;;5018095;28;20338;-88
2023/04/01 01:34:09;;;;;;;;;;;10.80;99.90;;;;;;5018907;28;19948;-87
2023/04/01 01:36:36;;;;;;;;;;;10.90;99.90;;;;;;4956607;29;19958;-90
2023/04/01 01:39:04;;;;;;;;;;;10.90;99.90;;;;;;4972580;28;19910;-92
2023/04/01 01:41:31;;;;;;;;;;;10.90;99.90;;;;;;5011135;28;20345;-91
2023/04/01 01:43:58;;;;;;;;;;;10.90;99.90;;;;;;5018521;28;20285;-91
2023/04/01 01:46:25;;;;;;;;;;;10.90;99.90;;;;;;5018875;28;19910;-90
2023/04/01 01:48:51;;;;;;;;;;;10.90;99.90;;;;;;5019016;28;19914;-90
2023/04/01 01:51:18;;;;;;;;;;;10.90;99.90;;;;;;5018917;28;19920;-89
2023/04/01 01:53:44;;;;;;;;;;;10.90;99.90;;;;;;5018238;28;20343;-87
2023/04/01 01:56:12;;;;;;;;;;;10.90;99.90;;;;;;5017580;28;19921;-87
2023/04/01 01:58:43;;;;;;;;;;;10.90;99.90;;;;;;5017886;28;19909;-87
2023/04/01 02:01:11;;;;;;;;;;;10.90;99.90;;;;;;5017946;28;19909;-88
2023/04/01 02:03:38;;;;;;;;;;;10.90;99.90;;;;;;5017802;28;19916;-87
2023/04/01 02:06:05;;;;;;;;;;;10.90;99.90;;;;;;5017633;28;19956;-88
2023/04/01 02:08:35;;;;;;;;;;;10.90;99.90;;;;;;5017679;28;19913;-87
2023/04/01 02:11:12;;;;;;;;;;;10.90;99.90;;;;;;5020329;28;19963;-88
2023/04/01 02:13:44;;;;;;;;;;;10.80;99.90;;;;;;5018018;28;19909;-88
2023/04/01 02:16:34;;;;;;;;;;;10.90;99.90;;;;;;5017857;28;19916;-87
2023/04/01 02:19:01;;;;;;;;;;;10.80;99.90;;;;;;5010150;28;20344;-87
2023/04/01 02:21:30;;;;;;;;;;;10.90;99.90;;;;;;5015601;28;20360;-88
2023/04/01 02:23:57;;;;;;;;;;;10.80;99.90;;;;;;5017891;28;19909;-88
2023/04/01 02:26:25;;;;;;;;;;;10.80;99.90;;;;;;5018337;28;19996;-88
2023/04/01 02:28:52;;;;;;;;;;;10.80;99.90;;;;;;5018138;28;19913;-88
2023/04/01 02:31:18;;;;;;;;;;;10.80;99.90;;;;;;5017707;28;19920;-88
2023/04/01 02:33:44;;;;;;;;;;;10.80;99.90;;;;;;5017448;28;20270;-89
2023/04/01 02:36:14;;;;;;;;;;;10.80;99.90;;;;;;5017666;28;19920;-88
2023/04/01 02:38:40;;;;;;;;;;;10.80;99.90;;;;;;5017441;28;20012;-88
2023/04/01 02:41:06;;;;;;;;;;;10.80;99.90;;;;;;5017842;28;19987;-88
2023/04/01 02:43:31;;;;;;;;;;;10.80;99.90;;;;;;5018200;28;19983;-88
2023/04/01 02:45:57;;;;;;;;;;;10.80;99.90;;;;;;5017464;28;19909;-88
2023/04/01 02:48:22;;;;;;;;;;;10.80;99.90;;;;;;5017176;28;19913;-88
2023/04/01 02:50:48;;;;;;;;;;;10.80;99.90;;;;;;5017049;28;19959;-87
2023/04/01 02:53:13;;;;;;;;;;;10.80;99.90;;;;;;5016052;28;20382;-84
2023/04/01 02:55:39;;;;;;;;;;;10.80;99.90;;;;;;5017840;28;19913;-91
2023/04/01 02:58:05;;;;;;;;;;;10.70;99.90;;;;;;5033544;28;19898;-90
2023/04/01 03:00:31;;;;;;;;;;;10.80;99.90;;;;;;5019655;28;19910;-91
2023/04/01 03:02:56;;;;;;;;;;;10.70;99.90;;;;;;5017460;28;19920;-90
2023/04/01 03:05:22;;;;;;;;;;;10.70;99.90;;;;;;5017214;28;19957;-90
2023/04/01 03:07:47;;;;;;;;;;;10.70;99.90;;;;;;5017179;28;19917;-90
2023/04/01 03:10:13;;;;;;;;;;;10.70;99.90;;;;;;5034859;28;20004;-90
2023/04/01 03:12:39;;;;;;;;;;;10.70;99.90;;;;;;5017299;28;19913;-91
2023/04/01 03:15:05;;;;;;;;;;;10.70;99.90;;;;;;5017267;28;20286;-91
2023/04/01 03:17:30;;;;;;;;;;;10.70;99.90;;;;;;5034714;28;20361;-90
2023/04/01 03:19:56;;;;;;;;;;;10.60;99.90;;;;;;5016954;28;19910;-91
2023/04/01 03:22:21;;;;;;;;;;;10.60;99.90;;;;;;5017375;28;19917;-91
2023/04/01 03:24:48;;;;;;;;;;;10.70;99.90;;;;;;5017046;28;19920;-91
2023/04/01 03:27:13;;;;;;;;;;;10.70;99.90;;;;;;5016860;28;20412;-91
2023/04/01 03:29:39;;;;;;;;;;;10.60;99.90;;;;;;5017229;28;20008;-92
2023/04/01 03:32:04;;;;;;;;;;;10.60;99.90;;;;;;5035197;28;19939;-91
2023/04/01 03:34:30;;;;;;;;;;;10.60;99.90;;;;;;5022618;28;19913;-91
2023/04/01 03:36:56;;;;;;;;;;;10.60;99.90;;;;;;5021469;28;19956;-92
2023/04/01 03:39:21;;;;;;;;;;;10.60;99.90;;;;;;5025210;28;19917;-91
2023/04/01 03:41:47;;;;;;;;;;;10.60;99.90;;;;;;5018913;28;20336;-90
2023/04/01 03:44:13;;;;;;;;;;;10.60;99.90;;;;;;5017550;28;20000;-91
2023/04/01 03:46:38;;;;;;;;;;;10.60;99.90;;;;;;5017053;28;20298;-89
2023/04/01 03:49:14;;;;;;;;;;;10.50;99.90;;;;;;5018363;28;19921;-88
2023/04/01 03:51:40;;;;;;;;;;;10.50;99.90;;;;;;5025283;28;19940;-88
2023/04/01 03:54:06;;;;;;;;;;;10.50;99.90;;;;;;5018598;28;19913;-88
2023/04/01 03:56:32;;;;;;;;;;;10.60;99.90;;;;;;5018545;28;20270;-88
2023/04/01 03:58:57;;;;;;;;;;;10.50;99.90;;;;;;5036060;28;19910;-88
2023/04/01 04:01:23;;;;;;;;;;;10.50;99.90;;;;;;5017768;28;19913;-87
2023/04/01 04:03:49;;;;;;;;;;;10.50;99.90;;;;;;5017471;28;19909;-87
2023/04/01 04:06:15;;;;;;;;;;;10.50;99.90;;;;;;5019759;28;19935;-86
2023/04/01 04:08:41;;;;;;;;;;;10.50;99.90;;;;;;5019724;28;20011;-85
2023/04/01 04:11:06;;;;;;;;;;;10.50;99.90;;;;;;5019511;28;19944;-85
2023/04/01 04:13:32;;;;;;;;;;;10.50;99.90;;;;;;5037103;28;19936;-86
2023/04/01 04:15:58;;;;;;;;;;;10.50;99.90;;;;;;5019329;28;20375;-85
2023/04/01 04:18:25;;;;;;;;;;;10.40;99.90;;;;;;5019196;28;20424;-85
2023/04/01 04:20:51;;;;;;;;;;;10.40;99.90;;;;;;5018621;28;19925;-85
2023/04/01 04:23:17;;;;;;;;;;;10.40;99.90;;;;;;5052639;28;19958;-88
2023/04/01 04:25:53;;;;;;;;;;;10.40;99.90;;;;;;5019806;28;19909;-88
2023/04/01 04:28:18;;;;;;;;;;;10.50;99.90;;;;;;5019742;28;20000;-88
2023/04/01 04:30:44;;;;;;;;;;;10.40;99.90;;;;;;5021340;28;19927;-89
2023/04/01 04:33:09;;;;;;;;;;;10.50;99.90;;;;;;5020534;28;19909;-91
2023/04/01 04:35:35;;;;;;;;;;;10.40;99.90;;;;;;5036942;28;20019;-91
2023/04/01 04:38:00;;;;;;;;;;;10.50;99.90;;;;;;5022299;28;20341;-91
2023/04/01 04:40:26;;;;;;;;;;;10.50;99.90;;;;;;5020861;28;19909;-88
2023/04/01 04:42:51;;;;;;;;;;;10.50;99.90;;;;;;5020434;28;19920;-88
2023/04/01 04:45:17;;;;;;;;;;;10.50;99.90;;;;;;5053311;28;19913;-88
2023/04/01 04:47:42;;;;;;;;;;;10.50;99.90;;;;;;5020169;28;19917;-89
2023/04/01 04:50:08;;;;;;;;;;;10.50;99.90;;;;;;5019806;28;19913;-88
2023/04/01 04:52:34;;;;;;;;;;;10.40;99.90;;;;;;5019435;28;20008;-88
2023/04/01 04:54:59;;;;;;;;;;;10.50;99.90;;;;;;5019305;28;19955;-88
2023/04/01 04:57:25;;;;;;;;;;;10.40;99.90;;;;;;5020150;28;19913;-87
2023/04/01 04:59:50;;;;;;;;;;;10.40;99.90;;;;;;5019741;28;19921;-87
2023/04/01 05:02:16;;;;;;;;;;;10.40;99.90;;;;;;5019564;28;19916;-87
2023/04/01 05:04:42;;;;;;;;;;;10.40;99.90;;;;;;5019578;28;19913;-88
2023/04/01 05:07:07;;;;;;;;;;;10.40;99.90;;;;;;5019781;28;19913;-87
2023/04/01 05:09:33;;;;;;;;;;;10.40;99.90;;;;;;5020067;28;19916;-86
2023/04/01 05:11:59;;;;;;;;;;;10.40;99.90;;;;;;5020816;28;20331;-94
2023/04/01 05:14:24;;;;;;;;;;;10.50;99.90;;;;;;5021184;28;19953;-92
2023/04/01 05:16:50;;;;;;;;;;;10.40;99.90;;;;;;5018442;28;20366;-90
2023/04/01 05:19:15;;;;;;;;;;;10.50;99.90;;;;;;5019050;28;19913;-91
2023/04/01 05:21:41;;;;;;;;;;;10.40;99.90;;;;;;5018742;28;19988;-91
2023/04/01 05:24:07;;;;;;;;;;;10.50;99.90;;;;;;5035216;28;19909;-92
2023/04/01 05:26:33;;;;;;;;;;;10.50;99.90;;;;;;5018680;28;19983;-92
2023/04/01 05:28:58;;;;;;;;;;;10.50;99.90;;;;;;5018049;28;19917;-85
2023/04/01 05:31:25;;;;;;;;;;;10.60;99.90;;;;;;5033888;28;20282;-86
2023/04/01 05:33:51;;;;;;;;;;;10.50;99.90;;;;;;5017821;28;19920;-86
2023/04/01 05:36:16;;;;;;;;;;;10.50;99.90;;;;;;5034396;28;19911;-86
2023/04/01 05:38:42;;;;;;;;;;;10.50;99.90;;;;;;5017747;28;20007;-85
2023/04/01 05:41:08;;;;;;;;;;;10.60;99.90;;;;;;5036475;28;19913;-85
2023/04/01 05:43:37;;;;;;;;;;;10.60;99.90;;;;;;5016963;28;19924;-85
2023/04/01 05:46:03;;;;;;;;;;;10.60;99.90;;;;;;5019823;28;19944;-87
2023/04/01 05:48:28;;;;;;;;;;;10.60;99.90;;;;;;5017034;28;19967;-87
2023/04/01 05:50:54;;;;;;;;;;;10.60;99.90;;;;;;5016967;28;19964;-88
2023/04/01 05:53:19;;;;;;;;;;;10.60;99.90;;;;;;5018277;28;19916;-87
2023/04/01 05:55:45;;;;;;;;;;;10.70;99.90;;;;;;5017866;28;19913;-87
2023/04/01 05:58:10;;;;;;;;;;;10.70;99.90;;;;;;5050740;28;20417;-87
2023/04/01 06:00:36;;;;;;;;;;;10.70;99.90;;;;;;5017061;28;19921;-87
2023/04/01 06:03:02;;;;;;;;;;;10.70;99.90;;;;;;5018438;28;19916;-91
2023/04/01 06:05:28;;;;;;;;;;;10.70;99.90;;;;;;5002219;28;19914;-90
2023/04/01 06:08:04;;;;;;;;;;;10.70;99.90;;;;;;5018468;28;19913;-90
2023/04/01 06:10:39;;;;;;;;;;;10.70;99.90;;;;;;5018611;28;19947;-92
2023/04/01 06:13:18;;;;;;;;;;;10.80;99.90;;;;;;5036171;28;20421;-92
2023/04/01 06:16:04;;;;;;;;;;;10.80;99.90;;;;;;5019482;28;19909;-92
2023/04/01 06:18:32;;;;;;;;;;;10.80;99.90;;;;;;5011180;28;19909;-85
2023/04/01 06:21:02;;;;;;;;;;;10.80;99.90;;;;;;5017118;28;19968;-85
2023/04/01 06:23:46;;;;;;;;;;;10.80;99.90;;;;;;5018873;28;19909;-86
2023/04/01 06:26:27;;;;;;;;;;;10.90;99.90;;;;;;5037210;28;19959;-85
2023/04/01 06:28:52;;;;;;;;;;;10.90;99.90;;;;;;5017755;28;19921;-86
2023/04/01 06:31:30;;;;;;;;;;;10.90;99.90;;;;;;5017217;28;20023;-86
2023/04/01 06:33:56;;;;;;;;;;;10.90;99.90;;;;;;5016903;28;19910;-86
2023/04/01 06:36:36;;;;;;;;;;;11.00;99.90;;;;;;5016899;28;19916;-85
2023/04/01 06:39:11;;;;;;;;;;;11.00;99.90;;;;;;5034817;28;19909;-86
2023/04/01 06:41:40;;;;;;;;;;;11.00;99.90;;;;;;5016717;28;20004;-86
2023/04/01 06:44:05;;;;;;;;;;;11.00;99.90;;;;;;5017703;28;19909;-86
2023/04/01 06:46:37;;;;;;;;;;;11.00;99.90;;;;;;5016678;28;20377;-86
2023/04/01 06:49:03;;;;;;;;;;;11.00;99.90;;;;;;5016645;28;20354;-85
2023/04/01 06:51:38;;;;;;;;;;;11.00;99.90;;;;;;5016636;28;19909;-86
2023/04/01 06:54:06;;;;;;;;;;;11.00;99.90;;;;;;5034209;28;19916;-85
2023/04/01 06:56:32;;;;;;;;;;;11.10;99.90;;;;;;5017022;28;19909;-86
2023/04/01 06:59:03;;;;;;;;;;;11.00;99.90;;;;;;5017095;28;19917;-85
2023/04/01 07:01:35;;;;;;;;;;;11.00;99.90;;;;;;5017993;28;19909;-86
2023/04/01 07:04:05;;;;;;;;;;;11.10;99.90;;;;;;5023554;28;19913;-85
2023/04/01 07:06:32;;;;;;;;;;;11.10;99.90;;;;;;5017259;28;19996;-86
2023/04/01 07:09:00;;;;;;;;;;;11.10;99.90;;;;;;5016811;28;19956;-88
2023/04/01 07:11:30;;;;;;;;;;;11.10;99.90;;;;;;5017261;28;20019;-87
2023/04/01 07:14:06;;;;;;;;;;;11.10;99.90;;;;;;5017242;28;19963;-87
2023/04/01 07:16:31;;;;;;;;;;;11.10;99.90;;;;;;5017119;28;19909;-88
2023/04/01 07:19:18;;;;;;;;;;;11.10;99.90;;;;;;5017081;28;19932;-87
2023/04/01 07:21:44;;;;;;;;;;;11.10;99.90;;;;;;5015766;28;19952;-87
2023/04/01 07:24:11;;;;;;;;;;;11.10;99.90;;;;;;5017866;28;19920;-88
2023/04/01 07:26:37;;;;;;;;;;;11.20;99.90;;;;;;5032213;28;19897;-91
2023/04/01 07:29:05;;;;;;;;;;;11.10;99.90;;;;;;5023857;28;20017;-89
2023/04/01 07:31:42;;;;;;;;;;;11.10;99.90;;;;;;5039295;28;19968;-89
2023/04/01 07:34:10;;;;;;;;;;;11.10;99.90;;;;;;5037244;28;19909;-91
2023/04/01 07:36:41;;;;;;;;;;;11.20;99.90;;;;;;5036655;28;19917;-91
2023/04/01 07:39:25;;;;;;;;;;;11.20;99.90;;;;;;5046611;28;19909;-87
2023/04/01 07:42:09;;;;;;;;;;;11.20;99.90;;;;;;5020845;28;19953;-86
2023/04/01 07:44:38;;;;;;;;;;;11.00;99.90;;;;;;5020489;28;19920;-87
2023/04/01 07:47:09;;;;;;;;;;;11.20;99.90;;;;;;5020415;28;19909;-87
2023/04/01 07:49:42;;;;;;;;;;;11.20;99.90;;;;;;5020177;28;19913;-87
2023/04/01 07:52:10;;;;;;;;;;;11.20;99.90;;;;;;5020316;28;20397;-87
2023/04/01 07:54:49;;;;;;;;;;;11.20;99.90;;;;;;5037888;28;19909;-87
2023/04/01 07:57:18;;;;;;;;;;;11.20;99.90;;;;;;5023007;28;19914;-86
2023/04/01 07:59:57;;;;;;;;;;;11.30;99.90;;;;;;5021262;28;19909;-86
2023/04/01 08:02:28;;;;;;;;;;;11.30;99.90;;;;;;5037685;28;19916;-86
2023/04/01 08:05:17;;;;;;;;;;;11.30;99.90;;;;;;5019831;28;19916;-86
2023/04/01 08:07:52;;;;;;;;;;;11.30;99.90;;;;;;5011557;28;19998;-85
2023/04/01 08:10:25;;;;;;;;;;;11.30;99.90;;;;;;5019355;28;19909;-85
2023/04/01 08:12:51;;;;;;;;;;;11.30;99.90;;;;;;5019313;28;20373;-85
2023/04/01 08:15:23;;;;;;;;;;;11.30;99.90;;;;;;5019464;28;19909;-87
2023/04/01 08:18:10;;;;;;;;;;;11.40;99.90;;;;;;5019445;28;19964;-88
2023/04/01 08:20:47;;;;;;;;;;;11.40;99.90;;;;;;5001990;28;19921;-86
2023/04/01 08:23:18;;;;;;;;;;;11.40;99.90;;;;;;5010712;28;20348;-86
2023/04/01 08:26:04;;;;;;;;;;;11.40;99.90;;;;;;5037341;28;20031;-85
2023/04/01 08:28:29;;;;;;;;;;;11.40;99.90;;;;;;5011537;28;19925;-85
2023/04/01 08:30:58;;;;;;;;;;;11.50;99.90;;;;;;5007198;28;19917;-85
2023/04/01 08:33:26;;;;;;;;;;;11.50;99.90;;;;;;5012465;28;19997;-89
2023/04/01 08:35:54;;;;;;;;;;;11.50;99.90;;;;;;5015583;28;19909;-86
2023/04/01 08:38:24;;;;;;;;;;;11.50;99.90;;;;;;5011384;28;19924;-88
2023/04/01 08:41:12;;;;;;;;;;;11.50;99.90;;;;;;5016820;28;19942;-89
2023/04/01 08:43:47;;;;;;;;;;;11.50;99.90;;;;;;5016432;28;19910;-89
2023/04/01 08:46:15;;;;;;;;;;;11.50;99.90;;;;;;5019769;28;19917;-87
2023/04/01 08:48:56;;;;;;;;;;;11.60;99.90;;;;;;5014694;28;20339;-87
2023/04/01 08:51:40;;;;;;;;;;;11.60;99.90;;;;;;5018194;28;19910;-88
2023/04/01 08:54:06;;;;;;;;;;;11.60;99.90;;;;;;5019365;28;19909;-87
2023/04/01 08:56:31;;;;;;;;;;;11.60;99.90;;;;;;5018338;28;19967;-86
2023/04/01 08:59:12;;;;;;;;;;;11.60;99.90;;;;;;5011208;28;19965;-87
2023/04/01 09:01:44;;;;;;;;;;;11.60;99.90;;;;;;5010944;28;19909;-87
2023/04/01 09:04:10;;;;;;;;;;;11.60;99.90;;;;;;5018644;28;19917;-87
2023/04/01 09:06:40;;;;;;;;;;;11.60;99.90;;;;;;5037338;28;19909;-91
2023/04/01 09:09:20;;;;;;;;;;;11.70;99.90;;;;;;5020085;28;20330;-92
2023/04/01 09:12:01;;;;;;;;;;;11.70;99.90;;;;;;5020033;28;19967;-91
2023/04/01 09:14:54;;;;;;;;;;;11.70;99.90;;;;;;5044375;28;20103;-91
2023/04/01 09:17:31;;;;;;;;;;;11.70;99.90;;;;;;5019964;28;19917;-92
2023/04/01 09:19:59;;;;;;;;;;;11.70;99.90;;;;;;5019995;28;19909;-93
2023/04/01 09:22:32;;;;;;;;;;;11.70;99.90;;;;;;5019526;28;19928;-85
2023/04/01 09:25:16;;;;;;;;;;;11.70;99.90;;;;;;5024849;28;19916;-85
2023/04/01 09:27:54;;;;;;;;;;;11.70;99.90;;;;;;5020903;28;19975;-85
2023/04/01 09:30:32;;;;;;;;;;;11.80;99.90;;;;;;4999736;28;19910;-84
2023/04/01 09:33:16;;;;;;;;;;;11.80;99.90;;;;;;4999433;28;19910;-85
2023/04/01 09:35:42;;;;;;;;;;;11.80;99.90;;;;;;4998400;28;19913;-85
2023/04/01 09:38:20;;;;;;;;;;;11.80;99.90;;;;;;5016337;28;19924;-85
2023/04/01 09:40:45;;;;;;;;;;;11.80;99.90;;;;;;5037150;28;19940;-88
2023/04/01 09:43:14;;;;;;;;;;;11.80;99.90;;;;;;5021235;28;19913;-88
2023/04/01 09:45:39;;;;;;;;;;;11.80;99.90;;;;;;5029067;28;19909;-88
2023/04/01 09:48:20;;;;;;;;;;;11.80;99.90;;;;;;5048256;28;19913;-87
2023/04/01 09:50:49;;;;;;;;;;;11.80;99.90;;;;;;5035974;28;19913;-87
2023/04/01 09:53:21;;;;;;;;;;;11.80;99.90;;;;;;5043470;28;19920;-87
2023/04/01 09:55:56;;;;;;;;;;;11.80;99.90;;;;;;5042255;28;19963;-84
2023/04/01 09:58:43;;;;;;;;;;;11.80;99.90;;;;;;5034065;28;20309;-86
2023/04/01 10:01:27;;;;;;;;;;;11.80;99.90;;;;;;5035096;28;19913;-86
2023/04/01 10:04:11;;;;;;;;;;;11.90;99.90;;;;;;5017513;28;19916;-86
2023/04/01 10:06:56;;;;;;;;;;;11.90;99.90;;;;;;5017800;28;19962;-87
2023/04/01 10:09:37;;;;;;;;;;;11.90;99.90;;;;;;5017573;28;20401;-87
2023/04/01 10:12:12;;;;;;;;;;;11.90;99.90;;;;;;5017690;28;19916;-84
2023/04/01 10:14:41;;;;;;;;;;;11.90;99.90;;;;;;5017835;28;19967;-84
2023/04/01 10:17:16;;;;;;;;;;;11.90;99.90;;;;;;5017411;28;19956;-83
2023/04/01 10:19:53;;;;;;;;;;;11.90;99.90;;;;;;5038261;28;19964;-83
2023/04/01 10:22:19;;;;;;;;;;;11.90;99.90;;;;;;5024433;28;19921;-84
2023/04/01 10:24:44;;;;;;;;;;;11.90;99.90;;;;;;5024486;28;20362;-84
2023/04/01 10:27:10;;;;;;;;;;;11.90;99.90;;;;;;5021985;28;19948;-84
2023/04/01 10:29:41;;;;;;;;;;;11.90;99.90;;;;;;5014715;28;19916;-87
2023/04/01 10:32:25;;;;;;;;;;;11.90;99.90;;;;;;5016316;28;19956;-88
2023/04/01 10:34:54;;;;;;;;;;;12.00;99.90;;;;;;5013965;28;19909;-84
2023/04/01 10:37:28;;;;;;;;;;;11.90;99.90;;;;;;5035002;28;19920;-87
2023/04/01 10:40:12;;;;;;;;;;;12.00;99.90;;;;;;5015673;28;19917;-86
2023/04/01 10:42:56;;;;;;;;;;;12.00;99.90;;;;;;5015264;28;20274;-86
2023/04/01 10:45:57;;;;;;;;;;;12.00;99.90;;;;;;5018635;28;20357;-86
2023/04/01 10:48:24;;;;;;;;;;;12.00;99.90;;;;;;4919416;29;20418;-85
2023/04/01 10:50:49;;;;;;;;;;;12.00;99.90;;;;;;5014347;28;19909;-85
2023/04/01 10:53:15;;;;;;;;;;;12.00;99.90;;;;;;5016552;28;20051;-85
2023/04/01 10:55:46;;;;;;;;;;;12.00;99.90;;;;;;5034617;28;19909;-87
2023/04/01 10:58:15;;;;;;;;;;;12.00;99.90;;;;;;5021356;28;19910;-92
2023/04/01 11:00:40;;;;;;;;;;;12.00;99.90;;;;;;5015120;28;19952;-92
2023/04/01 11:03:36;;;;;;;;;;;12.00;99.90;;;;;;5018969;28;19910;-87
2023/04/01 11:06:11;;;;;;;;;;;12.10;99.90;;;;;;5040914;28;19910;-87
2023/04/01 11:08:45;;;;;;;;;;;12.10;99.90;;;;;;5017864;28;19913;-93
2023/04/01 11:11:30;;;;;;;;;;;12.10;99.90;;;;;;5016139;28;20266;-91
2023/04/01 11:14:15;;;;;;;;;;;12.10;99.90;;;;;;5034857;28;19913;-91
2023/04/01 11:16:47;;;;;;;;;;;12.20;99.90;;;;;;4965681;28;20361;-92
2023/04/01 11:19:32;;;;;;;;;;;12.20;99.90;;;;;;5015800;28;19909;-85
2023/04/01 11:22:01;;;;;;;;;;;12.20;99.90;;;;;;5033784;28;19917;-85
2023/04/01 11:24:35;;;;;;;;;;;12.20;99.90;;;;;;5034144;28;20346;-85
2023/04/01 11:27:07;;;;;;;;;;;12.30;99.90;;;;;;5013402;28;20286;-85
2023/04/01 11:29:38;;;;;;;;;;;12.20;99.90;;;;;;5034012;28;19915;-83
2023/04/01 11:32:20;;;;;;;;;;;12.30;99.90;;;;;;5013527;28;20282;-85
2023/04/01 11:34:57;;;;;;;;;;;12.30;99.90;;;;;;5012942;28;19920;-85
2023/04/01 11:37:59;;;;;;;;;;;12.30;99.90;;;;;;5013529;28;19917;-87
2023/04/01 11:40:43;;;;;;;;;;;12.40;99.90;;;;;;4919200;29;19918;-87
2023/04/01 11:43:14;;;;;;;;;;;12.30;99.90;;;;;;5006096;28;19917;-87
2023/04/01 11:45:52;;;;;;;;;;;12.40;99.90;;;;;;5013335;28;19910;-92
2023/04/01 11:48:27;;;;;;;;;;;12.40;99.90;;;;;;5017797;28;19921;-93
2023/04/01 11:50:52;;;;;;;;;;;12.40;99.90;;;;;;5013428;28;20000;-85
2023/04/01 11:53:18;;;;;;;;;;;12.40;99.90;;;;;;5015494;28;19953;-87
2023/04/01 11:55:46;;;;;;;;;;;12.40;99.90;;;;;;5013141;28;19910;-87
2023/04/01 11:58:30;;;;;;;;;;;12.40;99.90;;;;;;5032107;28;20358;-87
2023/04/01 12:00:56;;;;;;;;;;;12.40;99.90;;;;;;5033766;28;19931;-87
2023/04/01 12:03:27;;;;;;;;;;;12.40;99.90;;;;;;5034165;28;20386;-87
2023/04/01 12:05:53;;;;;;;;;;;12.50;99.90;;;;;;5033664;28;19909;-87
2023/04/01 12:08:29;;;;;;;;;;;12.50;99.90;;;;;;5016263;28;19923;-87
2023/04/01 12:11:01;;;;;;;;;;;12.50;99.90;;;;;;5012508;28;19927;-85
2023/04/01 12:13:33;;;;;;;;;;;12.50;99.90;;;;;;5012497;28;19948;-85
2023/04/01 12:15:58;;;;;;;;;;;12.50;99.90;;;;;;5012287;28;20270;-85
2023/04/01 12:18:29;;;;;;;;;;;12.50;99.90;;;;;;5025145;28;19917;-84
2023/04/01 12:20:59;;;;;;;;;;;12.50;99.90;;;;;;5012058;28;19922;-84
2023/04/01 12:23:47;;;;;;;;;;;12.50;99.90;;;;;;5012809;28;19941;-84
2023/04/01 12:26:27;;;;;;;;;;;12.50;99.90;;;;;;5018263;28;19916;-93
2023/04/01 12:29:02;;;;;;;;;;;12.50;99.90;;;;;;5017182;28;19924;-92
2023/04/01 12:31:34;;;;;;;;;;;12.50;99.90;;;;;;5016930;28;19909;-93
2023/04/01 12:34:00;;;;;;;;;;;12.50;99.90;;;;;;5017640;28;19909;-92
2023/04/01 12:36:29;;;;;;;;;;;12.50;99.90;;;;;;5017245;28;20310;-92
2023/04/01 12:38:54;;;;;;;;;;;12.50;99.90;;;;;;5016880;28;19913;-88
2023/04/01 12:41:29;;;;;;;;;;;12.40;99.90;;;;;;5018915;28;20326;-87
2023/04/01 12:44:01;;;;;;;;;;;12.40;99.90;;;;;;5016300;28;19991;-87
2023/04/01 12:46:32;;;;;;;;;;;12.50;99.90;;;;;;5016258;28;19909;-87
2023/04/01 12:49:06;;;;;;;;;;;12.40;99.90;;;;;;5015893;28;19914;-87
2023/04/01 12:51:40;;;;;;;;;;;12.40;99.90;;;;;;5015924;28;19917;-87
2023/04/01 12:54:14;;;;;;;;;;;12.40;99.90;;;;;;5016680;28;19940;-87
2023/04/01 12:57:03;;;;;;;;;;;12.40;99.90;;;;;;5037357;28;20446;-87
2023/04/01 12:59:34;;;;;;;;;;;12.40;99.90;;;;;;4990918;28;20468;-88
2023/04/01 13:02:26;;;;;;;;;;;12.40;99.90;;;;;;5015671;28;20408;-86
2023/04/01 13:05:20;;;;;;;;;;;12.40;99.90;;;;;;4978373;28;19963;-86
2023/04/01 13:07:55;;;;;;;;;;;12.30;99.90;;;;;;5018711;28;20322;-87
2023/04/01 13:10:35;;;;;;;;;;;12.40;99.90;;;;;;5018395;28;19995;-88
2023/04/01 13:13:13;;;;;;;;;;;12.40;99.90;;;;;;5015633;28;19913;-87
2023/04/01 13:15:39;;;;;;;;;;;12.40;99.90;;;;;;5016035;28;20255;-85
2023/04/01 13:18:23;;;;;;;;;;;12.40;99.90;;;;;;5015829;28;19979;-87
2023/04/01 13:20:49;;;;;;;;;;;12.40;99.90;;;;;;5016612;28;19944;-87
2023/04/01 13:23:15;;;;;;;;;;;12.50;99.90;;;;;;5026701;28;19921;-89
2023/04/01 13:25:53;;;;;;;;;;;12.50;99.90;;;;;;5015700;28;20366;-88
2023/04/01 13:28:22;;;;;;;;;;;12.50;99.90;;;;;;5017290;28;19917;-89
2023/04/01 13:30:48;;;;;;;;;;;12.50;99.90;;;;;;5012693;28;20001;-89
2023/04/01 13:33:22;;;;;;;;;;;12.50;99.90;;;;;;5019458;28;19937;-86
2023/04/01 13:35:57;;;;;;;;;;;12.50;99.90;;;;;;5009620;28;19939;-86
2023/04/01 13:38:45;;;;;;;;;;;12.60;99.90;;;;;;5014866;28;19916;-86
2023/04/01 13:41:22;;;;;;;;;;;12.60;99.90;;;;;;5012956;28;19909;-87
2023/04/01 13:43:49;;;;;;;;;;;12.60;99.90;;;;;;5015825;28;20418;-86
2023/04/01 13:46:15;;;;;;;;;;;12.60;99.90;;;;;;5016248;28;19914;-89
2023/04/01 13:48:55;;;;;;;;;;;12.60;99.90;;;;;;5009585;28;20067;-88
2023/04/01 13:51:21;;;;;;;;;;;12.70;99.90;;;;;;5015352;28;19909;-88
2023/04/01 13:54:04;;;;;;;;;;;12.70;99.90;;;;;;5011130;28;20129;-88
2023/04/01 13:56:34;;;;;;;;;;;12.70;99.90;;;;;;5020136;28;19978;-88
2023/04/01 13:59:20;;;;;;;;;;;12.70;99.90;;;;;;5015739;28;20318;-89
2023/04/01 14:01:49;;;;;;;;;;;12.70;99.90;;;;;;5009624;28;20298;-88
2023/04/01 14:04:17;;;;;;;;;;;12.80;99.90;;;;;;5015362;28;19913;-88
2023/04/01 14:06:43;;;;;;;;;;;12.80;99.90;;;;;;5009272;28;19909;-90
2023/04/01 14:09:08;;;;;;;;;;;12.80;99.90;;;;;;5014704;28;19935;-90
2023/04/01 14:11:37;;;;;;;;;;;12.80;99.90;;;;;;5008085;28;19913;-89
2023/04/01 14:14:08;;;;;;;;;;;12.80;99.90;;;;;;5015532;28;19933;-89
2023/04/01 14:16:55;;;;;;;;;;;12.80;99.90;;;;;;5007694;28;19909;-89
2023/04/01 14:19:50;;;;;;;;;;;12.80;99.90;;;;;;5014496;28;20297;-90
2023/04/01 14:22:22;;;;;;;;;;;12.90;99.90;;;;;;4978763;28;19925;-92
2023/04/01 14:24:56;;;;;;;;;;;12.80;99.90;;;;;;4995258;28;19976;-92
2023/04/01 14:27:35;;;;;;;;;;;12.90;99.90;;;;;;4998568;28;19960;-93
2023/04/01 14:30:16;;;;;;;;;;;12.90;99.90;;;;;;4995528;28;19960;-92
2023/04/01 14:32:42;;;;;;;;;;;12.90;99.90;;;;;;4995604;28;19917;-93
2023/04/01 14:35:26;;;;;;;;;;;12.90;99.90;;;;;;4995994;28;19910;-93
2023/04/01 14:38:04;;;;;;;;;;;12.90;99.90;;;;;;4994831;28;19924;-92
2023/04/01 14:40:50;;;;;;;;;;;12.90;99.90;;;;;;5008209;28;20004;-89